sensor_id;sensor_type;location;lat;lon;timestamp;P1;durP1;ratioP1;P2;durP2;ratioP2
12332;SDS011;6232;48.094;11.288;2023-10-19T00:00:32;17.77;;;12.80;;
12332;SDS011;6232;48.094;11.288;2023-10-19T00:03:30;19.83;;;13.07;;
12332;SDS011;6232;48.094;11.288;2023-10-19T00:06:15;21.77;;;13.30;;
12332;SDS011;6232;48.094;11.288;2023-10-19T00:09:03;18.73;;;12.77;;
12332;SDS011;6232;48.094;11.288;2023-10-19T00:11:49;15.27;;;12.70;;
12332;SDS011;6232;48.094;11.288;2023-10-19T00:14:37;17.73;;;12.47;;
12332;SDS011;6232;48.094;11.288;2023-10-19T00:17:22;17.63;;;12.77;;
12332;SDS011;6232;48.094;11.288;2023-10-19T00:20:09;19.63;;;13.50;;
12332;SDS011;6232;48.094;11.288;2023-10-19T00:23:23;31.60;;;15.50;;
12332;SDS011;6232;48.094;11.288;2023-10-19T00:26:15;26.90;;;16.70;;
12332;SDS011;6232;48.094;11.288;2023-10-19T00:29:10;22.87;;;14.30;;
12332;SDS011;6232;48.094;11.288;2023-10-19T00:32:15;23.67;;;14.63;;
12332;SDS011;6232;48.094;11.288;2023-10-19T00:35:00;28.73;;;18.00;;
12332;SDS011;6232;48.094;11.288;2023-10-19T00:38:06;19.13;;;14.27;;
12332;SDS011;6232;48.094;11.288;2023-10-19T00:41:10;20.20;;;12.70;;
12332;SDS011;6232;48.094;11.288;2023-10-19T00:43:56;24.63;;;13.60;;
12332;SDS011;6232;48.094;11.288;2023-10-19T00:46:48;26.88;;;15.32;;
12332;SDS011;6232;48.094;11.288;2023-10-19T00:49:49;23.37;;;14.40;;
12332;SDS011;6232;48.094;11.288;2023-10-19T00:52:34;27.23;;;15.87;;
12332;SDS011;6232;48.094;11.288;2023-10-19T00:55:28;33.00;;;18.83;;
12332;SDS011;6232;48.094;11.288;2023-10-19T00:58:14;19.70;;;14.13;;
12332;SDS011;6232;48.094;11.288;2023-10-19T01:01:03;26.60;;;15.03;;
12332;SDS011;6232;48.094;11.288;2023-10-19T01:03:52;22.08;;;14.55;;
12332;SDS011;6232;48.094;11.288;2023-10-19T01:06:41;20.57;;;12.60;;
12332;SDS011;6232;48.094;11.288;2023-10-19T01:09:43;22.43;;;12.67;;
12332;SDS011;6232;48.094;11.288;2023-10-19T01:12:29;20.10;;;14.83;;
12332;SDS011;6232;48.094;11.288;2023-10-19T01:15:18;24.10;;;14.03;;
12332;SDS011;6232;48.094;11.288;2023-10-19T01:18:13;23.23;;;16.00;;
12332;SDS011;6232;48.094;11.288;2023-10-19T01:20:59;30.57;;;16.10;;
12332;SDS011;6232;48.094;11.288;2023-10-19T01:23:51;19.50;;;14.07;;
12332;SDS011;6232;48.094;11.288;2023-10-19T01:26:38;22.40;;;13.73;;
12332;SDS011;6232;48.094;11.288;2023-10-19T01:29:23;21.23;;;13.13;;
12332;SDS011;6232;48.094;11.288;2023-10-19T01:32:12;19.50;;;12.77;;
12332;SDS011;6232;48.094;11.288;2023-10-19T01:35:00;16.87;;;11.53;;
12332;SDS011;6232;48.094;11.288;2023-10-19T01:37:46;24.97;;;13.07;;
12332;SDS011;6232;48.094;11.288;2023-10-19T01:40:31;15.53;;;12.17;;
12332;SDS011;6232;48.094;11.288;2023-10-19T01:43:17;16.23;;;11.80;;
12332;SDS011;6232;48.094;11.288;2023-10-19T01:46:06;20.03;;;12.00;;
12332;SDS011;6232;48.094;11.288;2023-10-19T01:48:57;21.20;;;12.73;;
12332;SDS011;6232;48.094;11.288;2023-10-19T01:51:42;43.07;;;19.93;;
12332;SDS011;6232;48.094;11.288;2023-10-19T01:54:29;31.23;;;16.10;;
12332;SDS011;6232;48.094;11.288;2023-10-19T01:57:15;27.23;;;14.30;;
12332;SDS011;6232;48.094;11.288;2023-10-19T02:00:01;28.70;;;13.17;;
12332;SDS011;6232;48.094;11.288;2023-10-19T02:02:56;21.15;;;13.88;;
12332;SDS011;6232;48.094;11.288;2023-10-19T02:05:42;20.53;;;12.70;;
12332;SDS011;6232;48.094;11.288;2023-10-19T02:08:28;18.77;;;12.00;;
12332;SDS011;6232;48.094;11.288;2023-10-19T02:11:15;20.83;;;12.23;;
12332;SDS011;6232;48.094;11.288;2023-10-19T02:14:03;17.00;;;12.23;;
12332;SDS011;6232;48.094;11.288;2023-10-19T02:16:57;27.23;;;13.60;;
12332;SDS011;6232;48.094;11.288;2023-10-19T02:19:44;19.73;;;13.90;;
12332;SDS011;6232;48.094;11.288;2023-10-19T02:22:29;23.33;;;12.53;;
12332;SDS011;6232;48.094;11.288;2023-10-19T02:25:15;16.90;;;11.93;;
12332;SDS011;6232;48.094;11.288;2023-10-19T02:28:05;18.17;;;12.60;;
12332;SDS011;6232;48.094;11.288;2023-10-19T02:30:54;15.27;;;11.27;;
12332;SDS011;6232;48.094;11.288;2023-10-19T02:33:40;15.30;;;11.30;;
12332;SDS011;6232;48.094;11.288;2023-10-19T02:36:29;19.20;;;9.97;;
12332;SDS011;6232;48.094;11.288;2023-10-19T02:39:16;18.73;;;11.70;;
12332;SDS011;6232;48.094;11.288;2023-10-19T02:42:04;16.95;;;11.05;;
12332;SDS011;6232;48.094;11.288;2023-10-19T02:44:50;17.07;;;11.33;;
12332;SDS011;6232;48.094;11.288;2023-10-19T02:47:36;14.27;;;10.37;;
12332;SDS011;6232;48.094;11.288;2023-10-19T02:50:22;17.00;;;10.27;;
12332;SDS011;6232;48.094;11.288;2023-10-19T02:53:09;14.10;;;10.50;;
12332;SDS011;6232;48.094;11.288;2023-10-19T02:55:58;15.57;;;11.57;;
12332;SDS011;6232;48.094;11.288;2023-10-19T02:58:47;13.00;;;10.47;;
12332;SDS011;6232;48.094;11.288;2023-10-19T03:01:36;20.93;;;11.00;;
12332;SDS011;6232;48.094;11.288;2023-10-19T03:04:21;17.63;;;12.03;;
12332;SDS011;6232;48.094;11.288;2023-10-19T03:07:07;16.93;;;11.93;;
12332;SDS011;6232;48.094;11.288;2023-10-19T03:09:52;13.20;;;10.57;;
12332;SDS011;6232;48.094;11.288;2023-10-19T03:12:41;16.30;;;12.30;;
12332;SDS011;6232;48.094;11.288;2023-10-19T03:15:28;18.43;;;12.60;;
12332;SDS011;6232;48.094;11.288;2023-10-19T03:18:18;16.33;;;11.50;;
12332;SDS011;6232;48.094;11.288;2023-10-19T03:21:04;18.10;;;11.95;;
12332;SDS011;6232;48.094;11.288;2023-10-19T03:23:49;19.20;;;11.27;;
12332;SDS011;6232;48.094;11.288;2023-10-19T03:26:35;17.47;;;12.27;;
12332;SDS011;6232;48.094;11.288;2023-10-19T03:29:28;17.90;;;11.97;;
12332;SDS011;6232;48.094;11.288;2023-10-19T03:32:17;18.37;;;12.40;;
12332;SDS011;6232;48.094;11.288;2023-10-19T03:35:04;16.88;;;12.52;;
12332;SDS011;6232;48.094;11.288;2023-10-19T03:37:50;16.17;;;11.10;;
12332;SDS011;6232;48.094;11.288;2023-10-19T03:40:37;17.10;;;11.80;;
12332;SDS011;6232;48.094;11.288;2023-10-19T03:43:24;17.90;;;11.67;;
12332;SDS011;6232;48.094;11.288;2023-10-19T03:46:12;16.70;;;12.00;;
12332;SDS011;6232;48.094;11.288;2023-10-19T03:49:14;16.40;;;11.43;;
12332;SDS011;6232;48.094;11.288;2023-10-19T03:52:01;21.30;;;13.07;;
12332;SDS011;6232;48.094;11.288;2023-10-19T03:54:56;16.83;;;12.33;;
12332;SDS011;6232;48.094;11.288;2023-10-19T03:57:43;15.80;;;10.83;;
12332;SDS011;6232;48.094;11.288;2023-10-19T04:00:32;16.13;;;10.73;;
12332;SDS011;6232;48.094;11.288;2023-10-19T04:03:18;14.17;;;10.80;;
12332;SDS011;6232;48.094;11.288;2023-10-19T04:06:04;18.30;;;11.20;;
12332;SDS011;6232;48.094;11.288;2023-10-19T04:08:52;16.30;;;11.47;;
12332;SDS011;6232;48.094;11.288;2023-10-19T04:11:37;13.20;;;11.40;;
12332;SDS011;6232;48.094;11.288;2023-10-19T04:14:36;15.13;;;10.32;;
12332;SDS011;6232;48.094;11.288;2023-10-19T04:17:24;16.10;;;11.87;;
12332;SDS011;6232;48.094;11.288;2023-10-19T04:20:10;12.60;;;9.80;;
12332;SDS011;6232;48.094;11.288;2023-10-19T04:23:04;14.60;;;11.10;;
12332;SDS011;6232;48.094;11.288;2023-10-19T04:25:56;13.73;;;11.57;;
12332;SDS011;6232;48.094;11.288;2023-10-19T04:28:50;13.40;;;10.40;;
12332;SDS011;6232;48.094;11.288;2023-10-19T04:31:36;15.73;;;10.47;;
12332;SDS011;6232;48.094;11.288;2023-10-19T04:34:40;12.50;;;9.93;;
12332;SDS011;6232;48.094;11.288;2023-10-19T04:37:25;19.57;;;11.67;;
12332;SDS011;6232;48.094;11.288;2023-10-19T04:40:11;13.23;;;10.43;;
12332;SDS011;6232;48.094;11.288;2023-10-19T04:42:57;18.47;;;13.07;;
12332;SDS011;6232;48.094;11.288;2023-10-19T04:45:43;14.03;;;12.43;;
12332;SDS011;6232;48.094;11.288;2023-10-19T04:48:30;18.67;;;12.10;;
12332;SDS011;6232;48.094;11.288;2023-10-19T04:51:16;29.30;;;21.93;;
12332;SDS011;6232;48.094;11.288;2023-10-19T04:54:02;21.92;;;13.75;;
12332;SDS011;6232;48.094;11.288;2023-10-19T04:56:48;17.70;;;13.97;;
12332;SDS011;6232;48.094;11.288;2023-10-19T04:59:33;17.67;;;14.30;;
12332;SDS011;6232;48.094;11.288;2023-10-19T05:02:19;17.00;;;11.63;;
12332;SDS011;6232;48.094;11.288;2023-10-19T05:05:04;17.80;;;13.70;;
12332;SDS011;6232;48.094;11.288;2023-10-19T05:07:50;22.60;;;19.20;;
12332;SDS011;6232;48.094;11.288;2023-10-19T05:10:36;26.73;;;19.17;;
12332;SDS011;6232;48.094;11.288;2023-10-19T05:13:23;18.10;;;12.13;;
12332;SDS011;6232;48.094;11.288;2023-10-19T05:16:08;15.38;;;11.00;;
12332;SDS011;6232;48.094;11.288;2023-10-19T05:18:54;20.92;;;14.05;;
12332;SDS011;6232;48.094;11.288;2023-10-19T05:21:40;19.57;;;11.80;;
12332;SDS011;6232;48.094;11.288;2023-10-19T05:24:25;43.63;;;28.40;;
12332;SDS011;6232;48.094;11.288;2023-10-19T05:27:12;30.77;;;20.33;;
12332;SDS011;6232;48.094;11.288;2023-10-19T05:29:57;20.73;;;16.07;;
12332;SDS011;6232;48.094;11.288;2023-10-19T05:32:43;17.13;;;12.33;;
12332;SDS011;6232;48.094;11.288;2023-10-19T05:35:29;15.13;;;11.88;;
12332;SDS011;6232;48.094;11.288;2023-10-19T05:38:14;18.87;;;12.47;;
12332;SDS011;6232;48.094;11.288;2023-10-19T05:41:01;20.67;;;16.00;;
12332;SDS011;6232;48.094;11.288;2023-10-19T05:43:46;21.00;;;16.90;;
12332;SDS011;6232;48.094;11.288;2023-10-19T05:46:32;15.90;;;12.77;;
12332;SDS011;6232;48.094;11.288;2023-10-19T05:49:18;13.82;;;10.20;;
12332;SDS011;6232;48.094;11.288;2023-10-19T05:52:03;13.70;;;10.40;;
12332;SDS011;6232;48.094;11.288;2023-10-19T05:54:49;13.50;;;9.90;;
12332;SDS011;6232;48.094;11.288;2023-10-19T05:57:35;12.70;;;10.00;;
12332;SDS011;6232;48.094;11.288;2023-10-19T06:00:21;17.00;;;10.70;;
12332;SDS011;6232;48.094;11.288;2023-10-19T06:03:10;16.15;;;10.18;;
12332;SDS011;6232;48.094;11.288;2023-10-19T06:05:56;13.47;;;8.50;;
12332;SDS011;6232;48.094;11.288;2023-10-19T06:08:41;11.50;;;8.40;;
12332;SDS011;6232;48.094;11.288;2023-10-19T06:11:30;19.87;;;9.10;;
12332;SDS011;6232;48.094;11.288;2023-10-19T06:14:17;16.30;;;8.50;;
12332;SDS011;6232;48.094;11.288;2023-10-19T06:17:03;14.13;;;7.60;;
12332;SDS011;6232;48.094;11.288;2023-10-19T06:19:49;12.60;;;7.80;;
12332;SDS011;6232;48.094;11.288;2023-10-19T06:22:37;14.33;;;7.47;;
12332;SDS011;6232;48.094;11.288;2023-10-19T06:25:23;8.27;;;7.00;;
12332;SDS011;6232;48.094;11.288;2023-10-19T06:28:09;17.67;;;7.70;;
12332;SDS011;6232;48.094;11.288;2023-10-19T06:30:56;15.13;;;7.17;;
12332;SDS011;6232;48.094;11.288;2023-10-19T06:33:42;12.73;;;6.77;;
12332;SDS011;6232;48.094;11.288;2023-10-19T06:36:28;13.30;;;7.40;;
12332;SDS011;6232;48.094;11.288;2023-10-19T06:39:14;11.60;;;6.90;;
12332;SDS011;6232;48.094;11.288;2023-10-19T06:42:00;16.33;;;6.93;;
12332;SDS011;6232;48.094;11.288;2023-10-19T06:44:45;24.00;;;6.60;;
12332;SDS011;6232;48.094;11.288;2023-10-19T06:47:31;21.50;;;5.77;;
12332;SDS011;6232;48.094;11.288;2023-10-19T06:50:18;9.30;;;6.60;;
12332;SDS011;6232;48.094;11.288;2023-10-19T06:53:05;11.50;;;6.40;;
12332;SDS011;6232;48.094;11.288;2023-10-19T06:55:50;17.95;;;6.18;;
12332;SDS011;6232;48.094;11.288;2023-10-19T06:58:36;18.08;;;6.25;;
12332;SDS011;6232;48.094;11.288;2023-10-19T07:01:21;9.87;;;5.30;;
12332;SDS011;6232;48.094;11.288;2023-10-19T07:04:11;11.30;;;6.10;;
12332;SDS011;6232;48.094;11.288;2023-10-19T07:06:58;24.00;;;6.20;;
12332;SDS011;6232;48.094;11.288;2023-10-19T07:09:43;30.23;;;6.57;;
12332;SDS011;6232;48.094;11.288;2023-10-19T07:12:29;16.73;;;6.78;;
12332;SDS011;6232;48.094;11.288;2023-10-19T07:15:15;22.17;;;6.10;;
12332;SDS011;6232;48.094;11.288;2023-10-19T07:18:00;11.30;;;6.00;;
12332;SDS011;6232;48.094;11.288;2023-10-19T07:20:46;8.37;;;6.13;;
12332;SDS011;6232;48.094;11.288;2023-10-19T07:23:33;8.10;;;5.50;;
12332;SDS011;6232;48.094;11.288;2023-10-19T07:26:19;6.77;;;5.37;;
12332;SDS011;6232;48.094;11.288;2023-10-19T07:29:06;7.00;;;5.07;;
12332;SDS011;6232;48.094;11.288;2023-10-19T07:31:55;6.97;;;5.70;;
12332;SDS011;6232;48.094;11.288;2023-10-19T07:34:41;10.25;;;6.47;;
12332;SDS011;6232;48.094;11.288;2023-10-19T07:37:26;10.70;;;6.73;;
12332;SDS011;6232;48.094;11.288;2023-10-19T07:40:14;9.35;;;6.60;;
12332;SDS011;6232;48.094;11.288;2023-10-19T07:42:59;6.53;;;5.33;;
12332;SDS011;6232;48.094;11.288;2023-10-19T07:45:45;10.73;;;5.93;;
12332;SDS011;6232;48.094;11.288;2023-10-19T07:48:32;6.17;;;4.80;;
12332;SDS011;6232;48.094;11.288;2023-10-19T07:51:17;7.77;;;4.80;;
12332;SDS011;6232;48.094;11.288;2023-10-19T07:54:03;6.63;;;4.40;;
12332;SDS011;6232;48.094;11.288;2023-10-19T07:56:50;6.37;;;4.40;;
12332;SDS011;6232;48.094;11.288;2023-10-19T07:59:36;4.73;;;4.07;;
12332;SDS011;6232;48.094;11.288;2023-10-19T08:02:22;6.15;;;3.67;;
12332;SDS011;6232;48.094;11.288;2023-10-19T08:05:10;3.92;;;3.63;;
12332;SDS011;6232;48.094;11.288;2023-10-19T08:07:57;4.57;;;3.90;;
12332;SDS011;6232;48.094;11.288;2023-10-19T08:10:43;4.23;;;3.83;;
12332;SDS011;6232;48.094;11.288;2023-10-19T08:13:29;3.70;;;3.40;;
12332;SDS011;6232;48.094;11.288;2023-10-19T08:16:15;3.70;;;3.30;;
12332;SDS011;6232;48.094;11.288;2023-10-19T08:19:01;3.47;;;3.17;;
12332;SDS011;6232;48.094;11.288;2023-10-19T08:21:47;6.93;;;4.33;;
12332;SDS011;6232;48.094;11.288;2023-10-19T08:24:33;5.47;;;2.90;;
12332;SDS011;6232;48.094;11.288;2023-10-19T08:27:20;5.35;;;3.38;;
12332;SDS011;6232;48.094;11.288;2023-10-19T08:30:06;4.30;;;3.90;;
12332;SDS011;6232;48.094;11.288;2023-10-19T08:32:54;4.63;;;3.70;;
12332;SDS011;6232;48.094;11.288;2023-10-19T08:35:39;3.90;;;3.40;;
12332;SDS011;6232;48.094;11.288;2023-10-19T08:38:25;4.37;;;2.93;;
12332;SDS011;6232;48.094;11.288;2023-10-19T08:41:11;4.20;;;3.33;;
12332;SDS011;6232;48.094;11.288;2023-10-19T08:43:57;5.03;;;3.83;;
12332;SDS011;6232;48.094;11.288;2023-10-19T08:46:43;8.13;;;3.57;;
12332;SDS011;6232;48.094;11.288;2023-10-19T08:49:29;5.00;;;3.30;;
12332;SDS011;6232;48.094;11.288;2023-10-19T08:52:15;6.00;;;3.83;;
12332;SDS011;6232;48.094;11.288;2023-10-19T08:55:01;5.70;;;3.58;;
12332;SDS011;6232;48.094;11.288;2023-10-19T08:57:51;3.13;;;2.83;;
12332;SDS011;6232;48.094;11.288;2023-10-19T09:00:44;3.97;;;3.43;;
12332;SDS011;6232;48.094;11.288;2023-10-19T09:03:32;4.20;;;3.70;;
12332;SDS011;6232;48.094;11.288;2023-10-19T09:06:18;5.70;;;3.08;;
12332;SDS011;6232;48.094;11.288;2023-10-19T09:09:04;3.70;;;3.30;;
12332;SDS011;6232;48.094;11.288;2023-10-19T09:11:50;8.53;;;3.83;;
12332;SDS011;6232;48.094;11.288;2023-10-19T09:14:36;7.50;;;3.40;;
12332;SDS011;6232;48.094;11.288;2023-10-19T09:17:28;4.23;;;3.40;;
12332;SDS011;6232;48.094;11.288;2023-10-19T09:20:17;3.95;;;3.60;;
12332;SDS011;6232;48.094;11.288;2023-10-19T09:23:12;5.17;;;3.60;;
12332;SDS011;6232;48.094;11.288;2023-10-19T09:25:59;5.30;;;3.30;;
12332;SDS011;6232;48.094;11.288;2023-10-19T09:28:52;4.97;;;3.80;;
12332;SDS011;6232;48.094;11.288;2023-10-19T09:31:39;3.40;;;3.10;;
12332;SDS011;6232;48.094;11.288;2023-10-19T09:34:26;8.03;;;3.67;;
12332;SDS011;6232;48.094;11.288;2023-10-19T09:37:17;10.07;;;4.93;;
12332;SDS011;6232;48.094;11.288;2023-10-19T09:40:03;5.93;;;4.53;;
12332;SDS011;6232;48.094;11.288;2023-10-19T09:42:49;7.90;;;4.00;;
12332;SDS011;6232;48.094;11.288;2023-10-19T09:45:39;5.00;;;4.10;;
12332;SDS011;6232;48.094;11.288;2023-10-19T09:48:27;5.35;;;3.38;;
12332;SDS011;6232;48.094;11.288;2023-10-19T09:51:14;7.20;;;3.20;;
12332;SDS011;6232;48.094;11.288;2023-10-19T09:54:04;6.63;;;3.60;;
12332;SDS011;6232;48.094;11.288;2023-10-19T09:56:56;4.50;;;3.53;;
12332;SDS011;6232;48.094;11.288;2023-10-19T09:59:45;4.50;;;3.57;;
12332;SDS011;6232;48.094;11.288;2023-10-19T10:02:32;5.60;;;3.63;;
12332;SDS011;6232;48.094;11.288;2023-10-19T10:14:26;5.37;;;3.53;;
12332;SDS011;6232;48.094;11.288;2023-10-19T10:17:17;4.10;;;3.47;;
12332;SDS011;6232;48.094;11.288;2023-10-19T10:23:18;6.37;;;3.27;;
12332;SDS011;6232;48.094;11.288;2023-10-19T10:26:06;4.87;;;3.20;;
12332;SDS011;6232;48.094;11.288;2023-10-19T10:29:10;3.33;;;2.70;;
12332;SDS011;6232;48.094;11.288;2023-10-19T10:31:57;3.33;;;2.53;;
12332;SDS011;6232;48.094;11.288;2023-10-19T10:34:43;3.27;;;2.70;;
12332;SDS011;6232;48.094;11.288;2023-10-19T10:37:29;4.63;;;2.70;;
12332;SDS011;6232;48.094;11.288;2023-10-19T10:40:19;4.20;;;2.60;;
12332;SDS011;6232;48.094;11.288;2023-10-19T10:43:06;3.40;;;2.80;;
12332;SDS011;6232;48.094;11.288;2023-10-19T10:45:51;10.23;;;3.07;;
12332;SDS011;6232;48.094;11.288;2023-10-19T10:48:41;5.07;;;2.33;;
12332;SDS011;6232;48.094;11.288;2023-10-19T10:51:27;2.10;;;1.88;;
12332;SDS011;6232;48.094;11.288;2023-10-19T10:54:14;3.73;;;2.60;;
12332;SDS011;6232;48.094;11.288;2023-10-19T10:56:59;2.03;;;1.83;;
12332;SDS011;6232;48.094;11.288;2023-10-19T10:59:45;3.13;;;2.23;;
12332;SDS011;6232;48.094;11.288;2023-10-19T11:02:31;3.37;;;2.20;;
12332;SDS011;6232;48.094;11.288;2023-10-19T11:05:16;2.37;;;1.80;;
12332;SDS011;6232;48.094;11.288;2023-10-19T11:10:52;2.77;;;2.00;;
12332;SDS011;6232;48.094;11.288;2023-10-19T11:13:38;2.35;;;2.03;;
12332;SDS011;6232;48.094;11.288;2023-10-19T11:16:25;2.87;;;1.87;;
12332;SDS011;6232;48.094;11.288;2023-10-19T11:19:10;2.13;;;1.77;;
12332;SDS011;6232;48.094;11.288;2023-10-19T11:21:57;2.23;;;1.97;;
12332;SDS011;6232;48.094;11.288;2023-10-19T11:24:42;2.13;;;1.93;;
12332;SDS011;6232;48.094;11.288;2023-10-19T11:27:28;3.10;;;2.00;;
12332;SDS011;6232;48.094;11.288;2023-10-19T11:30:22;3.83;;;2.13;;
12332;SDS011;6232;48.094;11.288;2023-10-19T11:33:08;4.13;;;2.10;;
12332;SDS011;6232;48.094;11.288;2023-10-19T11:35:53;3.50;;;2.00;;
12332;SDS011;6232;48.094;11.288;2023-10-19T11:38:40;3.33;;;2.07;;
12332;SDS011;6232;48.094;11.288;2023-10-19T11:41:26;3.97;;;2.20;;
12332;SDS011;6232;48.094;11.288;2023-10-19T11:44:11;3.87;;;2.20;;
12332;SDS011;6232;48.094;11.288;2023-10-19T11:46:57;2.97;;;1.90;;
12332;SDS011;6232;48.094;11.288;2023-10-19T11:49:42;3.57;;;2.90;;
12332;SDS011;6232;48.094;11.288;2023-10-19T11:52:28;4.50;;;2.43;;
12332;SDS011;6232;48.094;11.288;2023-10-19T11:55:15;3.60;;;2.00;;
12332;SDS011;6232;48.094;11.288;2023-10-19T11:58:01;2.60;;;2.40;;
12332;SDS011;6232;48.094;11.288;2023-10-19T12:00:46;2.57;;;1.80;;
12332;SDS011;6232;48.094;11.288;2023-10-19T12:03:32;1.70;;;1.60;;
12332;SDS011;6232;48.094;11.288;2023-10-19T12:06:20;2.37;;;1.90;;
12332;SDS011;6232;48.094;11.288;2023-10-19T12:09:09;2.43;;;1.90;;
12332;SDS011;6232;48.094;11.288;2023-10-19T12:12:00;2.90;;;2.27;;
12332;SDS011;6232;48.094;11.288;2023-10-19T12:14:46;2.50;;;2.13;;
12332;SDS011;6232;48.094;11.288;2023-10-19T12:17:31;2.60;;;2.03;;
12332;SDS011;6232;48.094;11.288;2023-10-19T12:20:17;4.07;;;2.10;;
12332;SDS011;6232;48.094;11.288;2023-10-19T12:23:07;6.57;;;3.10;;
12332;SDS011;6232;48.094;11.288;2023-10-19T12:25:52;4.07;;;2.23;;
12332;SDS011;6232;48.094;11.288;2023-10-19T12:28:41;2.63;;;2.37;;
12332;SDS011;6232;48.094;11.288;2023-10-19T12:31:28;4.40;;;3.53;;
12332;SDS011;6232;48.094;11.288;2023-10-19T12:34:15;2.50;;;2.30;;
12332;SDS011;6232;48.094;11.288;2023-10-19T12:37:02;7.17;;;2.77;;
12332;SDS011;6232;48.094;11.288;2023-10-19T12:39:49;4.00;;;2.30;;
12332;SDS011;6232;48.094;11.288;2023-10-19T12:42:34;2.30;;;2.10;;
12332;SDS011;6232;48.094;11.288;2023-10-19T12:45:21;2.13;;;1.93;;
12332;SDS011;6232;48.094;11.288;2023-10-19T12:48:07;2.30;;;2.03;;
12332;SDS011;6232;48.094;11.288;2023-10-19T12:50:53;4.60;;;2.50;;
12332;SDS011;6232;48.094;11.288;2023-10-19T12:53:38;3.33;;;2.07;;
12332;SDS011;6232;48.094;11.288;2023-10-19T12:56:24;4.37;;;2.40;;
12332;SDS011;6232;48.094;11.288;2023-10-19T12:59:10;4.60;;;2.03;;
12332;SDS011;6232;48.094;11.288;2023-10-19T13:01:56;3.17;;;2.07;;
12332;SDS011;6232;48.094;11.288;2023-10-19T13:04:43;4.13;;;2.40;;
12332;SDS011;6232;48.094;11.288;2023-10-19T13:07:31;5.35;;;2.35;;
12332;SDS011;6232;48.094;11.288;2023-10-19T13:10:17;8.40;;;2.87;;
12332;SDS011;6232;48.094;11.288;2023-10-19T13:13:04;6.40;;;1.93;;
12332;SDS011;6232;48.094;11.288;2023-10-19T13:15:50;3.20;;;2.37;;
12332;SDS011;6232;48.094;11.288;2023-10-19T13:18:35;4.10;;;2.23;;
12332;SDS011;6232;48.094;11.288;2023-10-19T13:21:21;2.50;;;1.80;;
12332;SDS011;6232;48.094;11.288;2023-10-19T13:24:14;2.93;;;2.37;;
12332;SDS011;6232;48.094;11.288;2023-10-19T13:27:00;3.63;;;2.00;;
12332;SDS011;6232;48.094;11.288;2023-10-19T13:29:45;2.43;;;2.23;;
12332;SDS011;6232;48.094;11.288;2023-10-19T13:32:32;3.43;;;2.40;;
12332;SDS011;6232;48.094;11.288;2023-10-19T13:35:18;3.20;;;2.70;;
12332;SDS011;6232;48.094;11.288;2023-10-19T13:38:04;2.77;;;2.33;;
12332;SDS011;6232;48.094;11.288;2023-10-19T13:40:50;3.30;;;2.83;;
12332;SDS011;6232;48.094;11.288;2023-10-19T13:43:35;3.10;;;2.17;;
12332;SDS011;6232;48.094;11.288;2023-10-19T13:46:21;3.10;;;2.30;;
12332;SDS011;6232;48.094;11.288;2023-10-19T13:49:09;3.13;;;2.43;;
12332;SDS011;6232;48.094;11.288;2023-10-19T13:51:55;5.27;;;2.40;;
12332;SDS011;6232;48.094;11.288;2023-10-19T13:54:41;4.97;;;2.83;;
12332;SDS011;6232;48.094;11.288;2023-10-19T13:57:26;6.32;;;2.83;;
12332;SDS011;6232;48.094;11.288;2023-10-19T14:00:12;6.23;;;3.43;;
12332;SDS011;6232;48.094;11.288;2023-10-19T14:03:04;3.70;;;3.10;;
12332;SDS011;6232;48.094;11.288;2023-10-19T14:05:50;7.00;;;3.50;;
12332;SDS011;6232;48.094;11.288;2023-10-19T14:08:36;7.17;;;4.17;;
12332;SDS011;6232;48.094;11.288;2023-10-19T14:11:21;12.97;;;3.80;;
12332;SDS011;6232;48.094;11.288;2023-10-19T14:14:08;6.10;;;4.07;;
12332;SDS011;6232;48.094;11.288;2023-10-19T14:16:56;4.57;;;4.13;;
12332;SDS011;6232;48.094;11.288;2023-10-19T14:19:43;4.20;;;3.80;;
12332;SDS011;6232;48.094;11.288;2023-10-19T14:22:30;9.60;;;3.83;;
12332;SDS011;6232;48.094;11.288;2023-10-19T14:25:19;5.70;;;4.40;;
12332;SDS011;6232;48.094;11.288;2023-10-19T14:28:07;5.27;;;4.40;;
12332;SDS011;6232;48.094;11.288;2023-10-19T14:30:53;5.30;;;4.20;;
12332;SDS011;6232;48.094;11.288;2023-10-19T14:33:38;5.00;;;4.30;;
12332;SDS011;6232;48.094;11.288;2023-10-19T14:36:24;7.60;;;5.47;;
12332;SDS011;6232;48.094;11.288;2023-10-19T14:39:10;8.23;;;4.70;;
12332;SDS011;6232;48.094;11.288;2023-10-19T14:41:59;6.57;;;5.20;;
12332;SDS011;6232;48.094;11.288;2023-10-19T14:44:44;8.13;;;5.40;;
12332;SDS011;6232;48.094;11.288;2023-10-19T14:47:30;9.13;;;5.10;;
12332;SDS011;6232;48.094;11.288;2023-10-19T14:50:16;7.73;;;4.83;;
12332;SDS011;6232;48.094;11.288;2023-10-19T14:53:03;14.03;;;5.50;;
12332;SDS011;6232;48.094;11.288;2023-10-19T14:55:49;9.97;;;6.53;;
12332;SDS011;6232;48.094;11.288;2023-10-19T14:58:34;7.97;;;6.87;;
12332;SDS011;6232;48.094;11.288;2023-10-19T15:01:23;10.98;;;6.72;;
12332;SDS011;6232;48.094;11.288;2023-10-19T15:04:11;8.27;;;5.82;;
12332;SDS011;6232;48.094;11.288;2023-10-19T15:06:56;11.50;;;7.00;;
12332;SDS011;6232;48.094;11.288;2023-10-19T15:09:42;7.20;;;6.50;;
12332;SDS011;6232;48.094;11.288;2023-10-19T15:12:27;13.95;;;7.28;;
12332;SDS011;6232;48.094;11.288;2023-10-19T15:15:13;10.77;;;6.80;;
12332;SDS011;6232;48.094;11.288;2023-10-19T15:17:59;13.00;;;6.73;;
12332;SDS011;6232;48.094;11.288;2023-10-19T15:20:45;11.80;;;8.90;;
12332;SDS011;6232;48.094;11.288;2023-10-19T15:23:31;11.37;;;7.13;;
12332;SDS011;6232;48.094;11.288;2023-10-19T15:26:17;14.00;;;7.53;;
12332;SDS011;6232;48.094;11.288;2023-10-19T15:29:03;17.13;;;7.03;;
12332;SDS011;6232;48.094;11.288;2023-10-19T15:31:48;8.10;;;7.07;;
12332;SDS011;6232;48.094;11.288;2023-10-19T15:34:34;12.15;;;8.50;;
12332;SDS011;6232;48.094;11.288;2023-10-19T15:37:21;12.70;;;8.40;;
12332;SDS011;6232;48.094;11.288;2023-10-19T15:40:08;10.07;;;8.00;;
12332;SDS011;6232;48.094;11.288;2023-10-19T15:42:57;13.20;;;8.40;;
12332;SDS011;6232;48.094;11.288;2023-10-19T15:45:45;10.43;;;7.60;;
12332;SDS011;6232;48.094;11.288;2023-10-19T15:48:33;12.80;;;8.37;;
12332;SDS011;6232;48.094;11.288;2023-10-19T15:51:19;8.00;;;6.80;;
12332;SDS011;6232;48.094;11.288;2023-10-19T15:54:05;13.53;;;8.53;;
12332;SDS011;6232;48.094;11.288;2023-10-19T15:56:52;13.40;;;9.80;;
12332;SDS011;6232;48.094;11.288;2023-10-19T15:59:37;17.17;;;8.67;;
12332;SDS011;6232;48.094;11.288;2023-10-19T16:02:23;11.70;;;9.98;;
12332;SDS011;6232;48.094;11.288;2023-10-19T16:05:09;13.60;;;11.70;;
12332;SDS011;6232;48.094;11.288;2023-10-19T16:07:56;15.73;;;10.30;;
12332;SDS011;6232;48.094;11.288;2023-10-19T16:10:42;15.47;;;11.40;;
12332;SDS011;6232;48.094;11.288;2023-10-19T16:13:27;11.10;;;8.83;;
12332;SDS011;6232;48.094;11.288;2023-10-19T16:16:13;15.03;;;10.00;;
12332;SDS011;6232;48.094;11.288;2023-10-19T16:18:59;16.20;;;9.68;;
12332;SDS011;6232;48.094;11.288;2023-10-19T16:21:44;13.47;;;10.27;;
12332;SDS011;6232;48.094;11.288;2023-10-19T16:24:30;15.87;;;9.10;;
12332;SDS011;6232;48.094;11.288;2023-10-19T16:27:15;11.33;;;8.73;;
12332;SDS011;6232;48.094;11.288;2023-10-19T16:30:04;14.43;;;10.00;;
12332;SDS011;6232;48.094;11.288;2023-10-19T16:32:55;11.70;;;9.73;;
12332;SDS011;6232;48.094;11.288;2023-10-19T16:35:41;11.60;;;9.77;;
12332;SDS011;6232;48.094;11.288;2023-10-19T16:38:27;20.30;;;13.53;;
12332;SDS011;6232;48.094;11.288;2023-10-19T16:41:13;25.60;;;15.10;;
12332;SDS011;6232;48.094;11.288;2023-10-19T16:43:59;16.13;;;12.60;;
12332;SDS011;6232;48.094;11.288;2023-10-19T16:46:45;18.73;;;13.07;;
12332;SDS011;6232;48.094;11.288;2023-10-19T16:49:31;25.13;;;15.37;;